createdAt,value
2019-05-07T00:00:35.955Z,6.90
2019-05-07T00:03:19.336Z,6.90
2019-05-07T00:05:55.216Z,6.80
2019-05-07T00:08:37.757Z,6.80
2019-05-07T00:11:13.180Z,6.80
2019-05-07T00:13:55.441Z,6.90
2019-05-07T00:16:32.544Z,6.80
2019-05-07T00:19:15.421Z,6.90
2019-05-07T00:21:58.012Z,6.80
2019-05-07T00:24:47.885Z,6.80
2019-05-07T00:27:32.040Z,6.80
2019-05-07T00:30:14.700Z,6.70
2019-05-07T00:32:57.263Z,6.60
2019-05-07T00:35:34.479Z,6.60
2019-05-07T00:38:22.439Z,6.50
2019-05-07T00:41:02.721Z,6.40
2019-05-07T00:43:46.044Z,6.40
2019-05-07T00:46:23.919Z,6.50
2019-05-07T00:49:06.031Z,6.80
2019-05-07T00:51:42.467Z,6.70
2019-05-07T00:54:24.578Z,6.60
2019-05-07T00:56:59.994Z,6.50
2019-05-07T00:59:43.005Z,6.50
2019-05-07T01:02:22.418Z,6.40
2019-05-07T01:05:05.426Z,6.30
2019-05-07T01:07:42.043Z,6.20
2019-05-07T01:10:26.360Z,6.20
2019-05-07T01:13:08.877Z,6.20
2019-05-07T01:15:53.162Z,6.20
2019-05-07T01:18:29.550Z,6.20
2019-05-07T01:21:13.234Z,6.30
2019-05-07T01:23:49.779Z,6.20
2019-05-07T01:26:33.443Z,6.20
2019-05-07T01:29:09.934Z,6.20
2019-05-07T01:31:59.265Z,6.30
2019-05-07T01:34:46.420Z,6.30
2019-05-07T01:37:35.537Z,6.40
2019-05-07T01:40:18.613Z,6.50
2019-05-07T01:42:54.573Z,6.40
2019-05-07T01:45:49.477Z,6.40
2019-05-07T01:48:37.298Z,6.50
2019-05-07T01:51:26.574Z,6.50
2019-05-07T01:54:16.529Z,6.50
2019-05-07T01:56:59.433Z,6.50
2019-05-07T01:59:35.652Z,6.50
2019-05-07T02:02:23.242Z,6.50
2019-05-07T02:05:03.222Z,6.40
2019-05-07T02:07:47.471Z,6.40
2019-05-07T02:13:12.743Z,6.30
2019-05-07T02:16:04.141Z,6.30
2019-05-07T02:18:52.873Z,6.20
2019-05-07T02:21:35.351Z,6.20
2019-05-07T02:24:17.144Z,6.10
2019-05-07T02:29:34.729Z,6.10
2019-05-07T02:32:24.401Z,6.10
2019-05-07T02:35:13.896Z,6.10
2019-05-07T02:38:06.819Z,6.00
2019-05-07T02:41:06.627Z,6.00
2019-05-07T02:43:59.653Z,5.90
2019-05-07T02:46:43.572Z,5.90
2019-05-07T02:49:28.690Z,5.90
2019-05-07T02:52:13.643Z,5.80
2019-05-07T02:55:06.920Z,5.80
2019-05-07T02:57:48.752Z,5.80
2019-05-07T03:00:33.447Z,5.70
2019-05-07T03:03:09.319Z,5.70
2019-05-07T03:05:53.669Z,5.70
2019-05-07T03:08:36.103Z,5.70
2019-05-07T03:11:18.322Z,5.60
2019-05-07T03:14:03.168Z,5.60
2019-05-07T03:16:49.266Z,5.50
2019-05-07T03:19:37.475Z,5.50
2019-05-07T03:22:23.124Z,5.50
2019-05-07T03:25:16.040Z,5.50
2019-05-07T03:27:53.606Z,5.60
2019-05-07T03:30:45.729Z,5.60
2019-05-07T03:33:47.610Z,5.60
2019-05-07T03:39:26.486Z,5.60
2019-05-07T03:42:09.510Z,5.50
2019-05-07T03:44:46.589Z,5.50
2019-05-07T03:47:33.129Z,5.50
2019-05-07T03:50:23.464Z,5.50
2019-05-07T03:53:14.151Z,5.50
2019-05-07T03:55:44.463Z,5.50
2019-05-07T03:58:34.025Z,5.60
2019-05-07T04:01:24.251Z,5.60
2019-05-07T04:04:06.488Z,5.70
2019-05-07T04:06:49.643Z,5.70
2019-05-07T04:09:39.007Z,5.70
2019-05-07T04:12:23.823Z,5.90
2019-05-07T04:14:59.042Z,5.90
2019-05-07T04:17:42.972Z,6.00
2019-05-07T04:20:18.535Z,6.00
2019-05-07T04:23:04.378Z,6.10
2019-05-07T04:25:47.083Z,6.20
2019-05-07T04:28:47.578Z,6.30
2019-05-07T04:31:24.912Z,6.30
2019-05-07T04:34:09.148Z,6.50
2019-05-07T04:36:47.243Z,6.50
2019-05-07T04:39:36.656Z,6.50
2019-05-07T04:42:25.806Z,6.70
2019-05-07T04:44:53.967Z,6.80
2019-05-07T04:47:47.525Z,6.80
2019-05-07T04:50:43.079Z,7.00
2019-05-07T04:53:23.635Z,7.20
2019-05-07T04:56:06.254Z,7.30
2019-05-07T04:58:49.107Z,7.40
2019-05-07T05:01:33.014Z,7.50
2019-05-07T05:04:24.289Z,7.80
2019-05-07T05:06:52.963Z,8.00
2019-05-07T05:09:35.111Z,8.30
2019-05-07T05:12:02.813Z,8.30
2019-05-07T05:14:52.475Z,8.30
2019-05-07T05:17:47.033Z,8.40
2019-05-07T05:20:22.067Z,8.60
2019-05-07T05:22:48.863Z,8.70
2019-05-07T05:25:42.949Z,8.60
2019-05-07T05:28:32.430Z,8.80
2019-05-07T05:31:22.541Z,8.90
2019-05-07T05:34:13.040Z,9.00
2019-05-07T05:37:03.204Z,9.20
2019-05-07T05:40:05.582Z,9.10
2019-05-07T05:45:36.051Z,9.30
2019-05-07T05:48:18.577Z,9.40
2019-05-07T05:54:02.221Z,9.60
2019-05-07T05:56:53.756Z,9.60
2019-05-07T05:59:51.606Z,9.50
2019-05-07T06:02:53.400Z,9.50
2019-05-07T06:05:52.273Z,9.90
2019-05-07T06:08:59.095Z,9.80
2019-05-07T06:11:52.072Z,9.80
2019-05-07T06:14:39.072Z,9.60
2019-05-07T06:17:39.878Z,9.60
2019-05-07T06:20:32.086Z,9.70
2019-05-07T06:23:34.696Z,10.10
2019-05-07T06:26:23.781Z,10.40
2019-05-07T06:29:13.012Z,10.00
2019-05-07T06:32:07.766Z,9.90
2019-05-07T06:37:23.251Z,10.20
2019-05-07T06:42:55.930Z,10.30
2019-05-07T06:45:42.391Z,10.90
2019-05-07T06:48:37.721Z,11.10
2019-05-07T06:53:44.870Z,10.60
2019-05-07T06:56:34.440Z,10.20
2019-05-07T06:59:27.764Z,9.90
2019-05-07T07:02:33.779Z,10.30
2019-05-07T07:05:25.950Z,10.60
2019-05-07T07:08:29.607Z,11.10
2019-05-07T07:11:14.030Z,11.20
2019-05-07T07:13:51.975Z,11.20
2019-05-07T07:16:34.727Z,11.00
2019-05-07T07:19:16.889Z,10.90
2019-05-07T07:22:06.013Z,11.20
2019-05-07T07:27:22.728Z,10.60
2019-05-07T07:30:30.009Z,10.60
2019-05-07T07:36:02.491Z,11.30
2019-05-07T07:38:52.712Z,11.50
2019-05-07T07:41:45.714Z,11.50
2019-05-07T07:44:13.457Z,11.50
2019-05-07T07:47:02.677Z,11.50
2019-05-07T07:49:45.566Z,10.90
2019-05-07T07:52:22.992Z,10.70
2019-05-07T07:55:12.730Z,11.00
2019-05-07T07:58:12.125Z,11.40
2019-05-07T08:06:12.140Z,11.60
2019-05-07T08:08:54.820Z,11.80
2019-05-07T08:11:44.630Z,11.80
2019-05-07T08:14:33.962Z,12.10
2019-05-07T08:19:51.870Z,12.50
2019-05-07T08:22:42.316Z,12.50
2019-05-07T08:25:52.189Z,12.70
2019-05-07T08:28:34.928Z,12.80
2019-05-07T08:34:14.923Z,12.90
2019-05-07T08:37:04.034Z,12.70
2019-05-07T08:39:53.839Z,12.80
2019-05-07T08:52:52.105Z,13.00
2019-05-07T08:55:42.476Z,12.80
2019-05-07T08:58:18.540Z,12.40
2019-05-07T09:01:03.075Z,12.80
2019-05-07T09:06:18.291Z,12.90
2019-05-07T09:09:02.236Z,13.20
2019-05-07T09:11:38.709Z,13.00
2019-05-07T09:14:28.191Z,12.10
2019-05-07T09:17:17.647Z,12.40
2019-05-07T09:20:09.029Z,12.60
2019-05-07T09:22:57.312Z,12.80
2019-05-07T09:25:24.343Z,12.40
2019-05-07T09:28:13.694Z,12.80
2019-05-07T09:31:07.871Z,12.90
2019-05-07T09:33:52.203Z,13.00
2019-05-07T09:36:36.697Z,12.50
2019-05-07T09:39:26.334Z,13.00
2019-05-07T09:42:15.936Z,12.50
2019-05-07T09:45:05.705Z,12.60
2019-05-07T09:47:55.766Z,12.30
2019-05-07T09:55:45.654Z,12.50
2019-05-07T09:58:38.935Z,12.20
2019-05-07T10:01:26.119Z,12.70
2019-05-07T10:04:15.842Z,13.00
2019-05-07T10:09:32.618Z,13.50
2019-05-07T10:12:33.062Z,13.40
2019-05-07T10:15:09.357Z,13.60
2019-05-07T10:17:53.867Z,13.00
2019-05-07T10:20:29.936Z,12.90
2019-05-07T10:23:15.009Z,12.50
2019-05-07T10:25:42.047Z,12.10
2019-05-07T10:28:32.781Z,12.40
2019-05-07T10:31:22.818Z,12.70
2019-05-07T10:36:32.178Z,13.20
2019-05-07T10:38:59.179Z,12.80
2019-05-07T10:41:48.929Z,12.20
2019-05-07T10:44:40.131Z,12.20
2019-05-07T10:47:14.193Z,12.20
2019-05-07T10:52:29.361Z,12.10
2019-05-07T10:55:18.979Z,12.50
2019-05-07T10:58:08.509Z,12.60
2019-05-07T11:00:58.221Z,12.70
2019-05-07T11:06:14.305Z,12.20
2019-05-07T11:09:03.789Z,12.20
2019-05-07T11:11:52.984Z,12.00
2019-05-07T11:14:44.817Z,12.10
2019-05-07T11:17:11.994Z,12.40
2019-05-07T11:20:00.911Z,12.40
2019-05-07T11:22:52.195Z,12.20
2019-05-07T11:25:42.291Z,12.10
2019-05-07T11:28:24.114Z,12.30
2019-05-07T11:31:02.130Z,12.30
2019-05-07T11:33:52.092Z,12.30
2019-05-07T11:36:43.009Z,12.20
2019-05-07T11:39:12.062Z,12.20
2019-05-07T11:41:38.791Z,12.30
2019-05-07T11:44:31.955Z,12.40
2019-05-07T11:47:22.635Z,12.40
2019-05-07T11:52:45.459Z,13.00
2019-05-07T11:55:35.120Z,13.20
2019-05-07T11:58:02.940Z,13.00
2019-05-07T12:00:51.129Z,13.20
2019-05-07T12:03:27.598Z,13.30
2019-05-07T12:06:12.447Z,13.40
2019-05-07T12:08:48.069Z,13.00
2019-05-07T12:11:32.191Z,12.90
2019-05-07T12:14:27.924Z,12.60
2019-05-07T12:16:59.706Z,12.50
2019-05-07T12:19:49.079Z,12.30
2019-05-07T12:22:53.199Z,12.10
2019-05-07T12:25:42.451Z,11.90
2019-05-07T12:28:26.134Z,11.80
2019-05-07T12:31:19.503Z,11.80
2019-05-07T12:34:15.505Z,11.90
2019-05-07T12:36:58.358Z,11.90
2019-05-07T12:39:34.454Z,12.20
2019-05-07T12:42:16.872Z,12.40
2019-05-07T12:45:06.732Z,12.50
2019-05-07T12:47:56.384Z,12.70
2019-05-07T12:50:45.634Z,12.80
2019-05-07T12:53:37.006Z,12.80
2019-05-07T12:56:27.115Z,12.90
2019-05-07T12:59:17.204Z,13.00
2019-05-07T13:01:44.254Z,13.10
2019-05-07T13:07:02.504Z,13.00
2019-05-07T13:09:52.137Z,13.00
2019-05-07T13:12:41.981Z,13.30
2019-05-07T13:15:27.820Z,13.30
2019-05-07T13:18:08.252Z,13.00
2019-05-07T13:23:23.237Z,12.80
2019-05-07T13:26:12.151Z,12.70
2019-05-07T13:28:39.182Z,12.80
2019-05-07T13:34:04.806Z,12.10
2019-05-07T13:39:25.829Z,12.30
2019-05-07T13:41:53.604Z,12.60
2019-05-07T13:44:53.771Z,12.70
2019-05-07T13:47:44.012Z,12.90
2019-05-07T13:50:33.245Z,13.20
2019-05-07T13:53:22.845Z,12.80
2019-05-07T13:56:12.924Z,12.60
2019-05-07T13:58:39.917Z,12.60
2019-05-07T14:01:34.065Z,12.90
2019-05-07T14:04:23.761Z,12.90
2019-05-07T14:06:52.831Z,12.60
2019-05-07T14:09:42.128Z,12.60
2019-05-07T14:12:33.795Z,12.60
2019-05-07T14:15:02.180Z,12.60
2019-05-07T14:17:52.614Z,12.70
2019-05-07T14:20:42.524Z,12.60
2019-05-07T14:23:32.478Z,12.50
2019-05-07T14:26:23.720Z,12.40
2019-05-07T14:29:06.589Z,12.40
2019-05-07T14:31:42.781Z,12.20
2019-05-07T14:34:22.362Z,12.30
2019-05-07T14:37:18.335Z,12.60
2019-05-07T14:40:02.637Z,12.70
2019-05-07T14:42:52.795Z,12.70
2019-05-07T14:45:36.316Z,12.80
2019-05-07T14:48:12.764Z,12.80
2019-05-07T14:50:48.589Z,12.80
2019-05-07T14:53:32.801Z,12.60
2019-05-07T14:56:23.158Z,12.60
2019-05-07T14:59:12.874Z,12.60
2019-05-07T15:04:28.394Z,12.60
2019-05-07T15:07:12.155Z,12.80
2019-05-07T15:09:53.746Z,13.30
2019-05-07T15:12:42.956Z,13.50
2019-05-07T15:15:32.465Z,13.80
2019-05-07T15:21:14.785Z,13.20
2019-05-07T15:23:42.453Z,13.00
2019-05-07T15:26:32.666Z,12.80
2019-05-07T15:29:22.341Z,12.70
2019-05-07T15:34:38.011Z,13.00
2019-05-07T15:37:26.640Z,13.20
2019-05-07T15:39:53.675Z,13.10
2019-05-07T15:42:43.401Z,13.20
2019-05-07T15:45:27.524Z,13.10
2019-05-07T15:48:05.029Z,13.00
2019-05-07T15:53:25.915Z,12.70
2019-05-07T15:56:12.340Z,12.90
2019-05-07T15:58:54.522Z,13.10
2019-05-07T16:01:46.233Z,13.10
2019-05-07T16:04:25.643Z,13.00
2019-05-07T16:07:09.006Z,13.10
2019-05-07T16:09:52.584Z,12.90
2019-05-07T16:12:35.376Z,12.70
2019-05-07T16:15:13.676Z,12.60
2019-05-07T16:17:57.504Z,12.50
2019-05-07T16:20:39.907Z,12.70
2019-05-07T16:23:18.121Z,13.00
2019-05-07T16:26:02.471Z,12.90
2019-05-07T16:28:44.864Z,13.10
2019-05-07T16:31:27.815Z,13.10
2019-05-07T16:34:12.520Z,13.10
2019-05-07T16:36:55.210Z,13.00
2019-05-07T16:39:38.217Z,13.10
2019-05-07T16:42:21.847Z,13.10
2019-05-07T16:45:03.755Z,12.80
2019-05-07T16:47:46.465Z,12.50
2019-05-07T16:50:24.719Z,12.30
2019-05-07T16:53:07.157Z,12.20
2019-05-07T16:55:52.144Z,12.20
2019-05-07T16:58:52.335Z,12.30
2019-05-07T17:01:35.159Z,12.40
2019-05-07T17:04:12.283Z,12.20
2019-05-07T17:06:55.421Z,12.20
2019-05-07T17:09:32.025Z,12.20
2019-05-07T17:12:17.057Z,12.30
2019-05-07T17:14:53.263Z,12.40
2019-05-07T17:17:36.920Z,12.50
2019-05-07T17:20:21.996Z,12.30
2019-05-07T17:23:11.940Z,12.30
2019-05-07T17:25:55.545Z,12.40
2019-05-07T17:28:32.475Z,12.40
2019-05-07T17:31:16.417Z,12.50
2019-05-07T17:33:59.096Z,12.50
2019-05-07T17:36:42.159Z,12.50
2019-05-07T17:39:18.843Z,12.40
2019-05-07T17:42:02.480Z,12.40
2019-05-07T17:44:37.887Z,12.20
2019-05-07T17:47:21.814Z,12.00
2019-05-07T17:49:57.709Z,12.00
2019-05-07T17:52:41.735Z,11.80
2019-05-07T17:55:24.089Z,11.70
2019-05-07T17:58:06.717Z,11.60
2019-05-07T18:00:43.598Z,11.50
2019-05-07T18:03:36.956Z,11.50
2019-05-07T18:06:14.163Z,11.40
2019-05-07T18:08:56.291Z,11.30
2019-05-07T18:11:38.933Z,11.30
2019-05-07T18:14:22.791Z,11.20
2019-05-07T18:16:59.294Z,11.20
2019-05-07T18:19:42.001Z,11.10
2019-05-07T18:22:32.575Z,11.20
2019-05-07T18:25:21.812Z,11.10
2019-05-07T18:30:33.594Z,11.10
2019-05-07T18:33:24.888Z,11.10
2019-05-07T18:36:14.516Z,10.90
2019-05-07T18:38:42.413Z,10.80
2019-05-07T18:41:32.652Z,10.80
2019-05-07T18:44:22.475Z,10.70
2019-05-07T18:46:49.574Z,10.60
2019-05-07T18:49:38.991Z,10.50
2019-05-07T18:52:28.022Z,10.50
2019-05-07T18:57:47.313Z,10.40
2019-05-07T19:00:22.986Z,10.30
2019-05-07T19:02:59.056Z,10.30
2019-05-07T19:05:42.431Z,10.20
2019-05-07T19:08:18.736Z,10.20
2019-05-07T19:11:01.969Z,10.20
2019-05-07T19:13:52.478Z,10.10
2019-05-07T19:16:43.109Z,10.10
2019-05-07T19:19:12.317Z,10.10
2019-05-07T19:22:02.193Z,10.00
2019-05-07T19:24:52.721Z,10.00
2019-05-07T19:27:21.917Z,10.00
2019-05-07T19:30:13.704Z,10.00
2019-05-07T19:33:03.364Z,9.90
2019-05-07T19:38:19.468Z,9.60
2019-05-07T19:41:02.276Z,9.50
2019-05-07T19:43:39.270Z,9.50
2019-05-07T19:46:28.717Z,9.50
2019-05-07T19:49:18.475Z,9.50
2019-05-07T19:52:01.598Z,9.50
2019-05-07T19:54:57.896Z,9.50
2019-05-07T19:57:26.947Z,9.40
2019-05-07T20:00:09.120Z,9.30
2019-05-07T20:02:53.817Z,9.30
2019-05-07T20:05:37.453Z,9.20
2019-05-07T20:08:25.783Z,9.10
2019-05-07T20:13:43.579Z,8.60
2019-05-07T20:16:33.228Z,8.50
2019-05-07T20:19:23.081Z,8.60
2019-05-07T20:22:12.740Z,8.70
2019-05-07T20:27:27.993Z,8.60
2019-05-07T20:30:22.735Z,8.60
2019-05-07T20:33:04.047Z,8.40
2019-05-07T20:35:46.145Z,8.30
2019-05-07T20:38:22.292Z,8.20
2019-05-07T20:41:05.319Z,8.10
2019-05-07T20:43:48.088Z,8.10
2019-05-07T20:46:37.719Z,7.90
2019-05-07T20:49:27.083Z,7.80
2019-05-07T20:52:09.925Z,7.90
2019-05-07T20:54:54.699Z,7.90
2019-05-07T20:57:46.092Z,8.00
2019-05-07T21:00:22.816Z,8.00
2019-05-07T21:03:24.150Z,7.90
2019-05-07T21:06:13.208Z,8.00
2019-05-07T21:11:28.796Z,8.10
2019-05-07T21:14:12.122Z,8.10
2019-05-07T21:16:48.042Z,8.10
2019-05-07T21:19:37.322Z,8.10
2019-05-07T21:22:26.575Z,7.80
2019-05-07T21:25:16.005Z,7.70
2019-05-07T21:28:08.169Z,7.50
2019-05-07T21:30:57.264Z,7.40
2019-05-07T21:33:33.762Z,7.50
2019-05-07T21:36:16.521Z,7.40
2019-05-07T21:39:06.567Z,7.50
2019-05-07T21:41:48.763Z,7.60
2019-05-07T21:44:32.660Z,7.50
2019-05-07T21:47:22.321Z,7.40
2019-05-07T21:50:04.579Z,7.50
2019-05-07T21:55:22.388Z,7.80
2019-05-07T21:58:13.707Z,7.80
2019-05-07T22:01:12.482Z,7.70
2019-05-07T22:03:57.374Z,7.70
2019-05-07T22:06:42.834Z,7.80
2019-05-07T22:14:24.803Z,7.90
2019-05-07T22:17:13.385Z,8.10
2019-05-07T22:20:03.294Z,8.30
2019-05-07T22:22:52.391Z,8.30
2019-05-07T22:25:42.189Z,8.40
2019-05-07T22:28:32.177Z,8.30
2019-05-07T22:31:31.608Z,8.40
2019-05-07T22:36:55.342Z,8.30
2019-05-07T22:39:32.747Z,8.30
2019-05-07T22:42:15.194Z,8.10
2019-05-07T22:47:32.622Z,7.90
2019-05-07T22:50:15.402Z,7.90
2019-05-07T22:52:58.675Z,7.90
2019-05-07T22:58:18.992Z,7.90
2019-05-07T23:01:15.184Z,7.80
2019-05-07T23:04:04.803Z,7.90
2019-05-07T23:06:54.059Z,7.90
2019-05-07T23:09:44.913Z,7.80
2019-05-07T23:14:59.691Z,7.70
2019-05-07T23:17:49.088Z,7.50
2019-05-07T23:20:31.927Z,7.50
2019-05-07T23:23:14.867Z,7.40
2019-05-07T23:28:38.985Z,7.40
2019-05-07T23:31:14.478Z,7.50
2019-05-07T23:33:56.986Z,7.70
2019-05-07T23:36:32.936Z,7.70
2019-05-07T23:39:17.960Z,7.20
2019-05-07T23:42:24.788Z,7.00
2019-05-07T23:45:13.969Z,7.10
2019-05-07T23:48:03.740Z,7.10
2019-05-07T23:53:13.066Z,7.10
2019-05-07T23:58:27.649Z,7.00
